Time;durP1;ratioP1;P1;durP2;ratioP2;P2;SDS_P1;SDS_P2;PMS_P1;PMS_P2;Temp;Humidity;BMP_temperature;BMP_pressure;BME280_temperature;BME280_humidity;BME280_pressure;Samples;Min_cycle;Max_cycle;Signal;HPM_P1;HPM_P2
2021/06/23 00:01:05;;;;;;;0.55;0.55;;;14.20;93.70;;;17.16;82.48;102029.09;5037719;27;98353;-69
2021/06/23 00:03:33;;;;;;;8.13;2.80;;;14.20;93.70;;;17.15;82.50;102030.22;5031561;27;97730;-69
2021/06/23 00:06:05;;;;;;;1.45;0.90;;;14.20;93.80;;;17.22;82.33;102027.06;5037029;27;96846;-69
2021/06/23 00:08:36;;;;;;;1.90;1.10;;;14.20;93.90;;;17.22;81.35;102024.34;5034660;27;96791;-69
2021/06/23 00:11:06;;;;;;;0.55;0.55;;;14.20;93.90;;;17.19;81.54;102024.97;5031288;27;98036;-69
2021/06/23 00:13:35;;;;;;;1.33;0.55;;;14.20;93.80;;;17.17;82.15;102030.69;5033919;27;96705;-69
2021/06/23 00:16:08;;;;;;;0.10;0.10;;;14.20;93.80;;;17.17;81.58;102032.63;5031644;27;96889;-69
2021/06/23 00:18:38;;;;;;;0.40;0.40;;;14.10;93.80;;;17.19;81.52;102027.69;5032168;27;96986;-69
2021/06/23 00:21:07;;;;;;;0.77;0.70;;;14.10;93.90;;;17.14;81.76;102019.72;5029861;27;97862;-69
2021/06/23 00:23:37;;;;;;;0.28;0.28;;;14.10;93.90;;;17.11;81.53;102021.13;5028148;27;97243;-69
2021/06/23 00:26:07;;;;;;;0.35;0.20;;;14.10;93.90;;;17.09;81.77;102023.34;5031014;27;97078;-69
2021/06/23 00:28:36;;;;;;;1.00;0.73;;;14.10;93.90;;;17.09;81.95;102027.94;5034702;27;96804;-69
2021/06/23 00:31:04;;;;;;;1.05;0.95;;;14.10;93.90;;;17.17;81.54;102016.38;5032699;27;97489;-69
2021/06/23 00:33:35;;;;;;;2.05;1.90;;;14.10;93.90;;;17.15;81.70;102011.25;5038474;27;98978;-69
2021/06/23 00:36:05;;;;;;;6.40;0.75;;;14.00;93.90;;;17.17;81.85;102016.38;5019692;27;96846;-69
2021/06/23 00:38:34;;;;;;;0.82;0.82;;;14.10;94.00;;;17.18;81.39;102013.34;5035480;27;96878;-69
2021/06/23 00:41:07;;;;;;;0.10;0.10;;;14.00;93.90;;;17.19;80.91;102022.28;5032262;27;96787;-69
2021/06/23 00:43:36;;;;;;;1.45;0.45;;;14.00;94.00;;;17.11;81.78;102018.41;5034074;27;96670;-69
2021/06/23 00:46:05;;;;;;;11.40;1.08;;;14.00;94.00;;;17.15;82.07;102018.59;5036446;27;96900;-69
2021/06/23 00:48:58;;;;;;;0.28;0.28;;;14.00;94.00;;;17.07;82.14;102022.88;5008591;27;96794;-69
2021/06/23 00:51:27;;;;;;;1.67;1.13;;;14.00;94.00;;;17.11;80.84;102017.59;5020742;27;98403;-69
2021/06/23 00:54:11;;;;;;;0.30;0.30;;;14.00;94.00;;;17.09;81.85;102027.94;5009740;27;96952;-69
2021/06/23 00:56:43;;;;;;;0.38;0.30;;;14.00;94.00;;;17.05;81.96;102032.41;5036098;27;97485;-69
2021/06/23 00:59:14;;;;;;;0.10;0.10;;;14.00;94.00;;;17.01;81.61;102037.66;5008663;27;96734;-69
2021/06/23 01:01:44;;;;;;;4.28;0.55;;;14.00;94.00;;;16.98;81.65;102037.47;5007013;27;98234;-69
2021/06/23 01:04:15;;;;;;;0.50;0.50;;;13.90;94.00;;;16.97;82.33;102044.00;5013269;27;98052;-69
2021/06/23 01:06:47;;;;;;;0.43;0.43;;;13.90;94.00;;;16.97;82.15;102042.13;5013263;27;96883;-69
2021/06/23 01:09:16;;;;;;;5.15;2.25;;;13.90;94.10;;;17.01;82.21;102042.25;5007201;27;96914;-69
2021/06/23 01:12:16;;;;;;;0.13;0.13;;;13.90;94.10;;;17.00;82.36;102044.19;5042600;27;98148;-69
2021/06/23 01:14:49;;;;;;;1.33;0.63;;;13.90;94.10;;;17.02;82.63;102043.88;5027883;27;97204;-69
2021/06/23 01:17:20;;;;;;;1.15;0.52;;;13.90;94.20;;;17.05;82.43;102054.06;5038195;27;97086;-69
2021/06/23 01:20:01;;;;;;;0.38;0.38;;;13.90;94.30;;;17.03;83.02;102048.97;5035921;27;96980;-69
2021/06/23 01:22:40;;;;;;;0.45;0.45;;;14.00;94.30;;;17.12;81.87;102062.56;5012110;28;97982;-69
2021/06/23 01:25:14;;;;;;;0.22;0.22;;;14.00;94.30;;;17.10;81.69;102060.16;5014573;27;97681;-69
2021/06/23 01:27:46;;;;;;;1.02;0.90;;;14.00;94.40;;;17.14;82.14;102063.03;5030978;27;96991;-69
2021/06/23 01:30:18;;;;;;;0.95;0.57;;;14.00;94.40;;;17.16;81.76;102068.94;5035444;27;97705;-69
2021/06/23 01:32:56;;;;;;;0.57;0.30;;;14.00;94.40;;;17.16;82.48;102069.72;5033545;27;97818;-69
2021/06/23 01:35:27;;;;;;;0.60;0.60;;;14.00;94.40;;;17.15;82.34;102070.84;5009534;27;97662;-69
2021/06/23 01:37:58;;;;;;;0.50;0.50;;;14.00;94.40;;;17.16;81.87;102071.66;5041001;27;96926;-69
2021/06/23 01:40:27;;;;;;;0.20;0.20;;;14.00;94.40;;;17.20;82.74;102078.81;5038554;27;96868;-69
2021/06/23 01:42:57;;;;;;;0.10;0.10;;;14.00;94.40;;;17.18;82.74;102066.72;5017026;27;98128;-69
2021/06/23 01:45:30;;;;;;;0.63;0.63;;;14.00;94.50;;;17.17;82.36;102067.84;5029298;27;97728;-69
2021/06/23 01:47:59;;;;;;;14.60;3.67;;;14.00;94.50;;;17.21;82.66;102071.50;5010424;28;96793;-69
2021/06/23 01:50:30;;;;;;;1.10;0.40;;;14.00;94.50;;;17.23;81.43;102066.56;5026683;27;97064;-69
2021/06/23 01:53:04;;;;;;;0.60;0.60;;;14.00;94.50;;;17.26;81.57;102074.06;5015160;27;97294;-69
2021/06/23 01:55:34;;;;;;;0.17;0.17;;;14.00;94.50;;;17.29;81.57;102068.84;5037833;27;97167;-69
2021/06/23 01:58:09;;;;;;;0.90;0.90;;;14.00;94.50;;;17.29;81.63;102063.41;5010365;28;96907;-69
2021/06/23 02:00:54;;;;;;;0.73;0.70;;;14.00;94.50;;;17.28;81.77;102061.81;4996111;27;97104;-69
2021/06/23 02:04:05;;;;;;;0.10;0.10;;;14.00;94.50;;;17.24;81.64;102063.53;5037212;27;97955;-69
2021/06/23 02:07:09;;;;;;;0.43;0.43;;;14.00;94.50;;;17.24;81.67;102066.25;5029386;27;98980;-69
2021/06/23 02:10:07;;;;;;;0.35;0.30;;;14.00;94.50;;;17.20;82.43;102076.13;5026173;27;96962;-69
2021/06/23 02:14:14;;;;;;;0.93;0.85;;;13.90;94.50;;;17.28;81.49;102072.66;5038512;27;97620;-69
2021/06/23 02:17:08;;;;;;;0.20;0.20;;;13.90;94.50;;;17.37;81.86;102073.50;5014108;27;99490;-69
2021/06/23 02:19:49;;;;;;;1.30;0.63;;;13.90;94.60;;;17.27;81.55;102069.13;5025514;27;97862;-69
2021/06/23 02:22:34;;;;;;;0.40;0.40;;;13.90;94.50;;;17.32;81.38;102085.25;5014962;27;96741;-69
2021/06/23 02:25:13;;;;;;;0.15;0.15;;;13.90;94.60;;;17.36;80.95;102085.47;5013515;27;97107;-69
2021/06/23 02:27:55;;;;;;;0.00;0.00;;;13.90;94.60;;;17.27;81.27;102085.41;4996719;27;96946;-69
2021/06/23 02:30:24;;;;;;;0.68;0.68;;;13.90;94.50;;;17.22;81.45;102082.00;5012778;27;97699;-69
2021/06/23 02:32:59;;;;;;;0.25;0.25;;;13.90;94.60;;;17.21;82.36;102076.94;5008063;27;96732;-69
2021/06/23 02:35:51;;;;;;;0.10;0.10;;;13.90;94.60;;;17.23;82.01;102090.97;5030867;27;97023;-69
2021/06/23 02:38:30;;;;;;;0.00;0.00;;;13.90;94.60;;;17.24;81.67;102079.78;5031892;27;98863;-69
2021/06/23 02:41:04;;;;;;;0.63;0.60;;;13.90;94.60;;;17.18;81.98;102080.28;5018852;27;99045;-69
2021/06/23 02:43:35;;;;;;;0.70;0.68;;;13.90;94.60;;;17.09;82.61;102077.50;5007908;27;97023;-69
2021/06/23 02:46:18;;;;;;;0.85;0.77;;;13.90;94.60;;;17.17;82.14;102068.63;5007475;27;97206;-69
2021/06/23 02:48:52;;;;;;;0.30;0.30;;;13.90;94.60;;;17.19;81.56;102071.03;5020674;27;96839;-69
2021/06/23 02:51:27;;;;;;;15.70;0.80;;;13.90;94.60;;;17.11;82.02;102074.47;5020716;28;98260;-69
2021/06/23 02:54:00;;;;;;;4.57;1.13;;;13.90;94.60;;;17.06;82.72;102080.03;5032878;27;96967;-69
2021/06/23 02:56:47;;;;;;;0.32;0.32;;;13.80;94.60;;;17.09;82.40;102071.28;5034850;27;96674;-69
2021/06/23 02:59:19;;;;;;;1.38;0.55;;;13.80;94.60;;;17.20;81.68;102078.03;5041109;27;97973;-69
2021/06/23 03:01:49;;;;;;;0.10;0.10;;;13.80;94.60;;;17.19;81.22;102073.75;5038114;27;97649;-69
2021/06/23 03:04:22;;;;;;;0.80;0.25;;;13.80;94.60;;;17.14;81.84;102069.25;5028848;27;97274;-69
2021/06/23 03:07:13;;;;;;;0.65;0.65;;;13.80;94.60;;;17.05;81.80;102081.16;5035342;27;97083;-69
2021/06/23 03:09:49;;;;;;;1.10;0.63;;;13.80;94.60;;;16.96;83.05;102083.03;5008769;27;98031;-69
2021/06/23 03:12:40;;;;;;;0.52;0.32;;;13.80;94.60;;;16.97;82.45;102085.44;4987330;27;99036;-69
2021/06/23 03:15:31;;;;;;;0.20;0.20;;;13.80;94.60;;;16.97;81.64;102087.34;5034612;27;96767;-69
2021/06/23 03:18:20;;;;;;;0.30;0.30;;;13.80;94.50;;;16.97;81.81;102095.44;5015743;27;97025;-69
2021/06/23 03:20:50;;;;;;;0.57;0.55;;;13.80;94.60;;;17.01;81.69;102094.53;5011211;27;96828;-69
2021/06/23 03:23:19;;;;;;;0.30;0.30;;;13.70;94.60;;;17.01;81.89;102091.81;5032184;27;99080;-69
2021/06/23 03:25:49;;;;;;;1.42;1.27;;;13.70;94.60;;;17.02;82.15;102092.59;4994207;28;96893;-69
2021/06/23 03:28:20;;;;;;;0.10;0.10;;;13.70;94.70;;;17.07;81.95;102106.00;5035125;27;96886;-69
2021/06/23 03:30:54;;;;;;;3.92;2.50;;;13.70;94.70;;;17.10;82.55;102089.13;5016814;27;97076;-69
2021/06/23 03:33:23;;;;;;;0.28;0.28;;;13.70;94.70;;;17.12;82.18;102089.66;5014736;27;96830;-69
2021/06/23 03:36:20;;;;;;;1.10;1.00;;;13.80;94.80;;;17.11;81.93;102101.56;5013269;27;96920;-69
2021/06/23 03:38:51;;;;;;;0.22;0.22;;;13.80;94.80;;;17.12;81.18;102098.56;5013096;27;96808;-69
2021/06/23 03:41:21;;;;;;;0.50;0.50;;;13.70;94.70;;;17.19;81.57;102104.31;5026328;27;97922;-69
2021/06/23 03:43:51;;;;;;;0.50;0.50;;;13.80;94.80;;;17.23;81.92;102105.28;5016190;27;97812;-69
2021/06/23 03:46:21;;;;;;;0.22;0.22;;;13.80;94.80;;;17.25;81.27;102110.41;5020128;27;96764;-69
2021/06/23 03:48:50;;;;;;;0.52;0.47;;;13.80;94.80;;;17.30;81.90;102101.03;5026982;27;97051;-69
2021/06/23 03:51:25;;;;;;;0.40;0.38;;;13.80;94.80;;;17.31;81.60;102101.84;5012819;28;98731;-69
2021/06/23 03:53:54;;;;;;;0.73;0.55;;;13.80;94.80;;;17.34;80.94;102106.66;5033431;27;96912;-69
2021/06/23 03:56:23;;;;;;;2.22;1.45;;;13.90;94.80;;;17.37;81.78;102101.38;5009275;27;96981;-69
2021/06/23 03:58:54;;;;;;;0.20;0.20;;;13.90;94.80;;;17.45;81.54;102099.81;5027913;27;97371;-69
2021/06/23 04:01:23;;;;;;;0.22;0.22;;;14.00;94.80;;;17.53;81.68;102105.28;5029291;27;97530;-69
2021/06/23 04:04:09;;;;;;;2.63;0.80;;;14.00;94.70;;;17.53;81.33;102097.16;5017970;27;98370;-69
2021/06/23 04:06:50;;;;;;;0.43;0.43;;;14.10;94.70;;;17.59;81.48;102104.00;5007473;27;96793;-69
2021/06/23 04:09:21;;;;;;;0.30;0.30;;;14.10;94.70;;;17.70;81.09;102099.09;5004497;27;96847;-69
2021/06/23 04:11:55;;;;;;;3.42;2.17;;;14.20;94.70;;;17.79;80.48;102102.63;5029206;27;96954;-69
2021/06/23 04:14:25;;;;;;;0.55;0.55;;;14.20;94.60;;;17.82;80.45;102108.22;5022295;27;97746;-69
2021/06/23 04:16:56;;;;;;;2.95;1.38;;;14.30;94.60;;;17.91;80.34;102109.03;5029845;27;97050;-69
2021/06/23 04:19:27;;;;;;;0.65;0.65;;;14.30;94.50;;;17.95;80.60;102103.78;5009284;27;96848;-69
2021/06/23 04:21:59;;;;;;;0.50;0.50;;;14.30;94.50;;;17.98;80.46;102109.34;5007079;27;97905;-69
2021/06/23 04:24:32;;;;;;;0.73;0.30;;;14.40;94.40;;;18.06;80.22;102108.56;5010368;28;98744;-69
2021/06/23 04:27:05;;;;;;;0.65;0.63;;;14.50;94.40;;;18.17;80.19;102103.63;5000869;27;97109;-69
2021/06/23 04:29:39;;;;;;;0.57;0.57;;;14.50;94.40;;;18.16;80.29;102108.25;5026964;27;96904;-69
2021/06/23 04:32:08;;;;;;;0.82;0.70;;;14.60;94.30;;;18.23;80.16;102100.44;5034245;27;97831;-69
2021/06/23 04:34:43;;;;;;;0.20;0.20;;;14.60;94.20;;;18.23;80.29;102100.44;5018860;27;96938;-69
2021/06/23 04:37:32;;;;;;;0.13;0.13;;;14.70;94.20;;;18.28;80.18;102094.88;5030553;27;97305;-69
2021/06/23 04:40:09;;;;;;;0.70;0.70;;;14.70;94.10;;;18.30;80.02;102103.47;5015098;27;97649;-69
2021/06/23 04:42:41;;;;;;;0.80;0.80;;;14.70;94.10;;;18.35;80.03;102106.06;5033182;27;99169;-69
2021/06/23 04:45:15;;;;;;;3.53;1.97;;;14.80;94.10;;;18.36;79.98;102107.66;5007087;28;96953;-69
2021/06/23 04:47:57;;;;;;;0.32;0.32;;;14.80;94.00;;;18.44;80.10;102109.56;5024240;27;99882;-70
2021/06/23 04:50:27;;;;;;;2.53;1.27;;;14.80;94.00;;;18.52;79.89;102110.69;5021737;28;96860;-69
2021/06/23 04:52:59;;;;;;;5.82;1.60;;;14.90;94.10;;;18.59;79.59;102119.91;5024506;27;98977;-69
2021/06/23 04:55:33;;;;;;;3.63;0.75;;;14.90;94.00;;;18.67;79.24;102113.69;5009500;27;97847;-69
2021/06/23 04:58:06;;;;;;;0.35;0.35;;;14.90;94.00;;;18.62;79.33;102122.00;5022120;28;97027;-69
2021/06/23 05:00:37;;;;;;;1.50;1.17;;;14.90;94.00;;;18.66;79.85;102109.38;5007022;27;96787;-69
2021/06/23 05:03:09;;;;;;;0.38;0.13;;;15.00;93.90;;;18.76;79.11;102117.19;5032367;27;97870;-69
2021/06/23 05:05:39;;;;;;;1.65;0.45;;;15.10;93.90;;;18.84;79.05;102116.34;5037441;27;96936;-69
2021/06/23 05:08:08;;;;;;;0.15;0.15;;;15.10;93.80;;;18.84;79.21;102113.63;5009175;27;96789;-69
2021/06/23 05:10:37;;;;;;;0.47;0.47;;;15.10;93.80;;;18.88;78.87;102122.72;5006386;28;97098;-69
2021/06/23 05:13:06;;;;;;;0.13;0.13;;;15.20;93.80;;;18.97;79.21;102127.03;5035082;27;98610;-69
2021/06/23 05:15:36;;;;;;;2.47;0.70;;;15.20;93.80;;;19.20;78.47;102114.03;5031998;27;97710;-69
2021/06/23 05:18:06;;;;;;;0.43;0.43;;;15.30;93.70;;;19.29;78.52;102118.31;5035596;27;96827;-69
2021/06/23 05:20:35;;;;;;;0.65;0.65;;;15.40;93.50;;;19.23;78.64;102124.28;5006376;27;96820;-69
2021/06/23 05:23:05;;;;;;;0.20;0.20;;;15.50;93.50;;;19.20;78.53;102124.91;5018234;27;97936;-69
2021/06/23 05:25:34;;;;;;;0.75;0.30;;;15.50;93.50;;;19.22;78.48;102122.69;5032666;27;97222;-69
2021/06/23 05:28:06;;;;;;;0.77;0.77;;;15.50;93.50;;;19.28;78.96;102124.09;5011864;27;96793;-69
2021/06/23 05:30:36;;;;;;;18.90;0.65;;;15.50;93.50;;;19.33;78.19;102132.84;5029566;27;96993;-69
2021/06/23 05:33:07;;;;;;;0.38;0.38;;;15.50;93.50;;;19.34;78.52;102134.44;5010282;28;96888;-69
2021/06/23 05:35:37;;;;;;;0.52;0.52;;;15.50;93.50;;;19.40;78.13;102135.06;5013129;27;96906;-69
2021/06/23 05:38:06;;;;;;;1.40;0.70;;;15.50;93.50;;;19.53;78.46;102142.22;5033122;27;96819;-69
2021/06/23 05:40:36;;;;;;;0.40;0.40;;;15.70;93.50;;;19.64;78.64;102127.91;5029080;27;97929;-69
2021/06/23 05:43:04;;;;;;;0.35;0.35;;;15.70;93.40;;;19.91;78.12;102132.84;5020198;27;97979;-69
2021/06/23 05:45:33;;;;;;;0.38;0.38;;;15.90;93.30;;;20.05;76.78;102130.72;5037966;27;97712;-69
2021/06/23 05:48:04;;;;;;;0.40;0.40;;;16.10;93.10;;;20.22;76.65;102132.53;5032020;27;96682;-69
2021/06/23 05:50:33;;;;;;;1.35;0.95;;;16.30;92.90;;;20.87;75.38;102133.41;5026828;27;96821;-69
2021/06/23 05:53:05;;;;;;;0.28;0.28;;;16.60;92.60;;;21.43;73.55;102124.38;5032070;27;99817;-69
2021/06/23 05:55:36;;;;;;;2.47;1.60;;;17.00;92.10;;;21.94;71.67;102134.63;5033636;27;97907;-69
2021/06/23 05:58:07;;;;;;;0.63;0.30;;;17.40;91.60;;;22.22;71.05;102133.53;5033604;27;99577;-69
2021/06/23 06:00:37;;;;;;;0.10;0.10;;;17.70;91.10;;;22.55;70.77;102143.13;5029358;27;96804;-69
2021/06/23 06:03:07;;;;;;;0.35;0.35;;;18.10;90.80;;;23.12;69.14;102149.00;4993881;27;97053;-69
2021/06/23 06:05:36;;;;;;;1.00;0.75;;;18.50;90.30;;;23.41;68.78;102140.34;5027654;27;97294;-70
2021/06/23 06:08:06;;;;;;;1.13;0.65;;;18.80;89.80;;;24.08;67.23;102142.75;5009304;27;97824;-69
2021/06/23 06:10:35;;;;;;;0.47;0.47;;;19.30;89.00;;;25.22;64.80;102131.72;5032187;27;97361;-70
2021/06/23 06:13:07;;;;;;;0.10;0.10;;;20.00;87.20;;;27.37;59.06;102132.97;5032471;27;97046;-70
2021/06/23 06:15:36;;;;;;;0.57;0.57;;;21.40;83.10;;;27.28;59.82;102141.53;5026883;27;98626;-70
2021/06/23 06:18:09;;;;;;;7.43;0.73;;;22.00;81.40;;;26.35;62.59;102153.06;5035832;27;97025;-70
2021/06/23 06:20:38;;;;;;;13.23;0.68;;;21.80;81.00;;;25.63;64.86;102148.09;5029471;27;96835;-70
2021/06/23 06:23:07;;;;;;;0.13;0.13;;;21.50;81.90;;;25.40;65.62;102150.06;5031325;27;96988;-70
2021/06/23 06:25:36;;;;;;;0.20;0.15;;;21.30;83.30;;;25.79;65.44;102143.22;5019003;27;96931;-72
2021/06/23 06:28:06;;;;;;;0.10;0.10;;;21.30;84.40;;;27.05;62.33;102142.09;5006544;27;96848;-71
2021/06/23 06:30:35;;;;;;;2.10;0.50;;;21.80;83.80;;;27.48;61.29;102145.66;5027794;27;97049;-70
2021/06/23 06:33:05;;;;;;;2.83;0.43;;;22.40;82.00;;;27.10;62.86;102150.81;5010064;27;97188;-71
2021/06/23 06:35:35;;;;;;;0.10;0.10;;;22.40;81.80;;;27.18;62.85;102144.22;5029890;27;98226;-71
2021/06/23 06:38:06;;;;;;;0.30;0.30;;;22.40;82.10;;;28.15;61.17;102130.34;5014158;27;96792;-71
2021/06/23 06:40:35;;;;;;;1.40;0.35;;;22.80;82.20;;;28.44;60.18;102137.59;5015283;27;97062;-70
2021/06/23 06:43:06;;;;;;;4.68;0.82;;;23.30;80.70;;;28.29;61.15;102140.66;5009873;27;98015;-71
2021/06/23 06:45:35;;;;;;;2.75;0.68;;;23.40;80.50;;;29.38;58.78;102123.16;5032016;27;97189;-71
2021/06/23 06:48:08;;;;;;;6.28;0.70;;;24.00;79.90;;;31.09;54.93;102109.50;5039114;27;96740;-71
2021/06/23 06:50:38;;;;;;;0.30;0.30;;;25.10;78.00;;;33.99;48.35;102115.88;5032554;27;97482;-71
2021/06/23 06:53:07;;;;;;;0.77;0.60;;;26.90;74.60;;;32.74;52.00;102116.84;5027351;27;96977;-71
2021/06/23 06:55:36;;;;;;;6.65;1.02;;;27.20;72.80;;;34.94;47.87;102116.16;5009231;27;96828;-71
2021/06/23 06:58:04;;;;;;;1.63;0.40;;;28.20;72.50;;;36.36;45.46;102129.47;5023024;27;96890;-71
2021/06/23 07:00:34;;;;;;;0.13;0.13;;;29.60;69.10;;;36.77;45.73;102126.63;5013682;27;96950;-72
2021/06/23 07:03:04;;;;;;;0.50;0.50;;;30.30;67.80;;;37.43;45.26;102076.91;5026372;27;97097;-72
2021/06/23 07:05:34;;;;;;;0.03;0.03;;;31.00;67.80;;;40.91;39.04;102011.69;5030696;27;97903;-72
2021/06/23 07:08:08;;;;;;;1.92;0.32;;;32.90;65.60;;;43.15;36.42;102014.69;5034545;27;96778;-72
2021/06/23 07:10:37;;;;;;;2.08;0.95;;;34.90;62.30;;;43.50;36.58;102024.59;5008177;28;97308;-71
2021/06/23 07:13:06;;;;;;;0.30;0.28;;;36.00;60.70;;;44.56;35.83;102007.22;5038217;27;98027;-69
2021/06/23 07:15:35;;;;;;;0.65;0.50;;;36.90;60.20;;;45.57;35.23;102087.97;5017676;27;97799;-69
2021/06/23 07:18:05;;;;;;;0.65;0.28;;;37.70;59.20;;;43.92;39.00;102069.19;5032416;27;96826;-72
2021/06/23 07:20:34;;;;;;;1.95;0.50;;;37.40;60.90;;;42.41;42.07;102113.38;5039327;27;96962;-72
2021/06/23 07:23:04;;;;;;;0.00;0.00;;;36.90;62.00;;;40.74;46.04;102114.56;5031886;27;98089;-69
2021/06/23 07:25:34;;;;;;;0.30;0.30;;;36.00;63.60;;;39.49;47.90;102107.94;5020388;27;98069;-69
2021/06/23 07:28:05;;;;;;;0.40;0.40;;;35.00;65.90;;;38.54;50.14;102111.09;5032183;27;96792;-68
2021/06/23 07:30:34;;;;;;;4.88;0.70;;;34.20;67.60;;;36.93;53.59;102121.69;5034105;27;96876;-69
2021/06/23 07:33:08;;;;;;;2.83;0.75;;;33.20;69.20;;;35.02;58.13;102117.53;5020834;27;97862;-69
2021/06/23 07:38:23;;;;;;;1.35;0.75;;;31.20;71.70;;;32.67;61.48;102130.78;5033265;27;97272;-69
2021/06/23 07:41:00;;;;;;;2.58;1.17;;;30.20;73.10;;;33.67;58.15;102118.44;5030313;27;96858;-69
2021/06/23 07:43:32;;;;;;;0.90;0.47;;;29.70;73.90;;;33.07;59.20;102127.03;5032394;27;98642;-71
2021/06/23 07:46:03;;;;;;;1.17;0.15;;;29.40;74.20;;;33.22;58.75;102131.16;5031608;27;97032;-71
2021/06/23 07:48:53;;;;;;;0.55;0.43;;;29.20;74.80;;;35.76;51.47;102122.03;5033238;27;96757;-72
2021/06/23 07:51:28;;;;;;;2.58;1.35;;;29.40;74.30;;;36.27;50.43;102123.75;5030155;27;96975;-71
2021/06/23 07:54:17;;;;;;;5.65;0.70;;;30.00;73.40;;;34.68;54.16;102124.72;5029571;27;98647;-70
2021/06/23 08:03:11;;;;;;;1.35;1.02;;;29.50;75.20;;;34.81;54.83;102122.84;5035299;27;96974;-71
2021/06/23 08:08:41;;;;;;;1.63;0.82;;;29.60;74.70;;;33.46;57.71;102127.19;5034200;27;97871;-71
2021/06/23 08:13:56;;;;;;;0.13;0.13;;;28.70;74.90;;;31.48;62.37;102120.28;5029376;27;96869;-69
2021/06/23 08:16:26;;;;;;;0.38;0.38;;;28.10;76.70;;;30.42;64.80;102126.91;5030421;27;96789;-71
2021/06/23 08:18:55;;;;;;;0.35;0.30;;;27.50;77.40;;;29.89;65.53;102124.31;5032460;27;97691;-72
2021/06/23 08:21:23;;;;;;;2.25;0.38;;;27.00;78.00;;;29.65;65.82;102127.13;5015432;28;96856;-72
2021/06/23 08:23:52;;;;;;;0.10;0.10;;;26.70;78.80;;;29.84;65.24;102121.16;5030200;27;98242;-74
2021/06/23 08:26:21;;;;;;;6.63;1.52;;;26.50;79.30;;;30.26;63.80;102129.34;5009302;27;97062;-73
2021/06/23 08:28:50;;;;;;;0.43;0.20;;;26.50;79.40;;;30.92;61.74;102131.78;5006000;28;96794;-74
2021/06/23 08:31:20;;;;;;;0.13;0.13;;;26.50;78.80;;;31.28;60.66;102135.88;5033397;27;97314;-74
2021/06/23 08:33:49;;;;;;;1.13;0.73;;;26.60;78.40;;;31.11;60.84;102134.81;5030635;27;96669;-73
2021/06/23 08:36:18;;;;;;;0.20;0.20;;;26.60;78.20;;;30.99;61.26;102138.06;5007854;27;100127;-73
2021/06/23 08:38:46;;;;;;;0.10;0.10;;;26.60;78.60;;;31.10;60.89;102138.78;5029350;27;97372;-72
2021/06/23 08:41:16;;;;;;;0.65;0.43;;;26.50;78.60;;;31.49;59.75;102133.69;5026726;27;99969;-72
2021/06/23 08:43:44;;;;;;;0.38;0.38;;;26.60;78.50;;;31.05;60.68;102135.63;5034930;27;97182;-72
2021/06/23 08:46:13;;;;;;;1.48;0.43;;;26.60;78.10;;;30.49;62.02;102138.75;5036622;27;97874;-72
2021/06/23 08:48:43;;;;;;;2.53;1.60;;;26.40;78.70;;;29.93;63.27;102132.59;5040149;27;97638;-71
2021/06/23 08:51:12;;;;;;;0.10;0.10;;;26.00;78.80;;;29.37;64.51;102143.69;5039645;27;96741;-71
2021/06/23 08:53:41;;;;;;;2.67;1.05;;;25.70;79.40;;;28.64;66.35;102141.59;5016075;27;96783;-72
2021/06/23 08:56:10;;;;;;;1.80;0.43;;;25.30;80.20;;;28.31;67.06;102146.59;5034561;27;98013;-71
2021/06/23 08:58:38;;;;;;;0.00;0.00;;;25.00;80.90;;;28.19;67.16;102141.41;5036037;27;97660;-71
2021/06/23 09:01:07;;;;;;;21.00;1.27;;;24.80;81.60;;;28.05;67.51;102147.63;5027011;27;97275;-71
2021/06/23 09:04:04;;;;;;;3.03;1.55;;;24.60;81.90;;;27.94;67.32;102149.56;5018985;27;97321;-70
2021/06/23 09:06:47;;;;;;;0.20;0.20;;;24.40;81.80;;;27.71;67.73;102149.00;5031301;27;97087;-71
2021/06/23 09:09:23;;;;;;;;;;;24.20;82.10;;;27.58;68.08;102155.94;5013847;27;97938;-70
2021/06/23 09:11:55;;;;;;;0.15;0.15;;;24.10;81.80;;;27.65;67.81;102152.47;5032167;27;97052;-70
2021/06/23 09:14:28;;;;;;;0.15;0.15;;;24.00;82.60;;;27.93;67.21;102149.91;5031440;27;96862;-71
2021/06/23 09:17:11;;;;;;;0.20;0.20;;;24.00;83.00;;;28.10;66.49;102150.00;5030123;27;98068;-71
2021/06/23 09:20:00;;;;;;;0.08;0.03;;;24.10;82.60;;;28.29;66.07;102144.25;5030698;27;97697;-70
2021/06/23 09:22:39;;;;;;;0.13;0.08;;;24.10;83.10;;;28.45;65.85;102144.69;5030449;27;96807;-70
2021/06/23 09:25:26;;;;;;;0.10;0.10;;;24.20;82.70;;;28.72;65.19;102139.66;5025611;27;97805;-71
2021/06/23 09:27:59;;;;;;;0.20;0.20;;;24.40;82.20;;;29.06;64.19;102145.28;5024931;27;97401;-72
2021/06/23 09:30:35;;;;;;;0.45;0.45;;;24.50;82.00;;;29.27;63.51;102147.25;5014805;27;99000;-73
2021/06/23 09:33:19;;;;;;;0.95;0.45;;;24.70;81.40;;;29.53;62.97;102150.41;5030180;27;97188;-73
2021/06/23 09:36:01;;;;;;;0.47;0.13;;;24.80;81.00;;;29.90;61.92;102145.25;5034227;27;97419;-72
2021/06/23 09:38:52;;;;;;;0.93;0.52;;;25.00;80.70;;;30.27;61.17;102140.03;5040019;27;97138;-71
2021/06/23 09:41:27;;;;;;;0.65;0.65;;;25.20;80.60;;;30.28;61.54;102141.59;5033800;27;96946;-72
2021/06/23 09:44:05;;;;;;;0.30;0.17;;;25.40;80.20;;;30.28;61.67;102149.88;5037804;27;97257;-71
2021/06/23 09:46:37;;;;;;;0.15;0.15;;;25.50;80.10;;;30.24;62.08;102153.84;5039122;27;96777;-72
2021/06/23 09:49:12;;;;;;;1.33;0.17;;;25.60;80.20;;;30.25;62.14;102158.19;5035273;27;97251;-74
2021/06/23 09:51:48;;;;;;;6.07;1.05;;;25.60;79.90;;;30.11;62.04;102153.50;5030634;27;97099;-72
2021/06/23 09:54:20;;;;;;;0.20;0.20;;;25.60;79.70;;;29.98;62.73;102157.06;5036782;27;97317;-72
2021/06/23 09:57:15;;;;;;;1.48;0.73;;;25.60;80.10;;;29.85;63.31;102156.69;5035297;27;97225;-71
2021/06/23 09:59:47;;;;;;;0.15;0.15;;;25.40;80.00;;;29.69;63.69;102150.81;5014382;27;97034;-72
2021/06/23 10:02:26;;;;;;;0.25;0.25;;;25.40;80.50;;;29.33;64.37;102148.44;5032689;27;97700;-70
2021/06/23 10:04:57;;;;;;;2.08;0.60;;;25.30;80.20;;;29.25;64.29;102146.84;5033561;27;96945;-70
2021/06/23 10:07:43;;;;;;;0.00;0.00;;;25.20;80.60;;;29.07;64.85;102146.84;5009648;28;97316;-72
2021/06/23 10:10:16;;;;;;;1.35;0.35;;;25.10;80.40;;;28.87;65.37;102149.53;5008984;28;97895;-73
2021/06/23 10:12:47;;;;;;;2.25;1.33;;;25.00;80.90;;;28.77;65.14;102140.06;5005733;27;96883;-68
2021/06/23 10:15:17;;;;;;;0.10;0.10;;;24.90;80.40;;;28.72;64.89;102142.41;5030050;27;96883;-70
2021/06/23 10:17:47;;;;;;;0.10;0.03;;;24.80;80.20;;;28.74;64.94;102140.06;5037431;27;96608;-70
2021/06/23 10:20:18;;;;;;;0.40;0.40;;;24.70;80.70;;;29.11;64.09;102146.84;5021488;28;98058;-70
2021/06/23 10:22:48;;;;;;;0.10;0.10;;;24.70;81.10;;;29.45;63.04;102134.28;5031612;27;97694;-72
2021/06/23 10:25:18;;;;;;;0.45;0.32;;;24.80;81.00;;;29.35;63.40;102146.06;4995229;27;97706;-71
2021/06/23 10:27:50;;;;;;;0.77;0.20;;;24.80;81.00;;;29.28;63.68;102138.59;5031569;27;96857;-71
2021/06/23 10:30:22;;;;;;;22.53;2.33;;;24.80;81.10;;;29.34;63.52;102144.47;5011352;28;96845;-71
2021/06/23 10:32:51;;;;;;;0.30;0.22;;;24.90;81.30;;;29.50;63.46;102140.16;5011630;27;97913;-70
2021/06/23 10:35:24;;;;;;;0.35;0.28;;;25.00;81.10;;;29.89;62.73;102140.09;5030066;27;97475;-72
2021/06/23 10:37:57;;;;;;;4.32;1.25;;;25.10;81.30;;;30.06;62.82;102139.31;5032069;27;96942;-70
2021/06/23 10:40:28;;;;;;;0.82;0.22;;;25.30;81.20;;;30.19;62.75;102148.75;5034171;27;99788;-69
2021/06/23 10:43:15;;;;;;;0.20;0.20;;;25.40;81.00;;;30.16;62.83;102152.31;5007782;27;97627;-70
2021/06/23 10:45:47;;;;;;;1.38;0.05;;;25.60;80.50;;;30.19;63.06;102148.75;5026509;27;97042;-70
2021/06/23 10:48:16;;;;;;;0.20;0.20;;;25.70;80.60;;;30.02;63.12;102138.50;5024301;27;97089;-70
2021/06/23 10:50:45;;;;;;;0.13;0.13;;;25.70;80.10;;;29.93;63.51;102140.88;5030760;27;97908;-70
2021/06/23 10:53:35;;;;;;;0.00;0.00;;;25.60;80.40;;;30.05;63.27;102137.75;5029301;27;98194;-70
2021/06/23 10:56:07;;;;;;;0.25;0.25;;;25.60;80.30;;;30.27;63.10;102141.97;5027025;27;97124;-71